SBSP/CGH METAR and TAF weather

Enter ICAO airport designator
Station Type Date Time Source
SBSP METAR 2019/10/23 14:00 UTC NOAA

SBSP 231400Z VRB06KT 9999 FEW033 23/13 Q1020


Station Type Date Time Source
SBSP Decoded METAR 2019/10/23 14:00 UTC NOAA

Sao Paulo/Congonhas Aeroporto, Brazil (SBSP) 23-37S 046-39W 802M
Oct 23, 2019 - 10:00 AM EDT / 2019.10.23 1400 UTC
Wind: Variable at 7 MPH (6 KT):0
Visibility: greater than 7 mile(s):0
Sky conditions: mostly clear
Temperature: 73 F (23 C)
Dew Point: 55 F (13 C)
Relative Humidity: 53%
Pressure (altimeter): 30.12 in. Hg (1020 hPa)
ob: SBSP 231400Z VRB06KT 9999 FEW033 23/13 Q1020
cycle: 14

Station Type Date Time Source
SBSP TAF 2019/10/23 12:15 UTC NOAA

TAF TAF SBSP 230909Z 2312/2324 12006KT CAVOK TX25/2317Z TN19/2323Z
BECMG 2313/2315 SCT025
BECMG 2316/2318 16010KT CAVOK PROB40 2319/2324 BKN011
RMK PHM

Example: see airport list